createdAt,value
2019-04-28T00:01:43.389Z,52.30
2019-04-28T00:04:22.019Z,52.10
2019-04-28T00:06:55.073Z,52.50
2019-04-28T00:09:37.128Z,52.40
2019-04-28T00:12:11.452Z,54.10
2019-04-28T00:14:45.732Z,52.20
2019-04-28T00:17:26.709Z,52.40
2019-04-28T00:20:38.102Z,53.70
2019-04-28T00:23:13.117Z,55.70
2019-04-28T00:25:46.187Z,56.20
2019-04-28T00:28:21.232Z,59.40
2019-04-28T00:30:55.662Z,58.10
2019-04-28T00:36:21.697Z,57.70
2019-04-28T00:39:56.638Z,57.60
2019-04-28T00:41:31.030Z,57.80
2019-04-28T00:44:06.360Z,59.00
2019-04-28T00:46:41.430Z,56.40
2019-04-28T00:52:12.287Z,57.40
2019-04-28T01:08:02.948Z,54.50
2019-04-28T01:10:37.735Z,54.20
2019-04-28T01:13:08.452Z,53.70
2019-04-28T01:16:22.103Z,53.80
2019-04-28T01:18:53.449Z,53.70
2019-04-28T01:21:27.474Z,53.40
2019-04-28T01:23:59.752Z,53.40
2019-04-28T01:26:30.785Z,53.20
2019-04-28T01:29:49.839Z,53.30
2019-04-28T01:32:39.889Z,53.40
2019-04-28T01:35:10.560Z,53.30
2019-04-28T01:38:09.950Z,53.00
2019-04-28T01:40:44.546Z,53.10
2019-04-28T01:46:11.063Z,52.80
2019-04-28T01:48:41.928Z,53.00
2019-04-28T01:51:15.278Z,52.90
2019-04-28T01:53:51.807Z,52.30
2019-04-28T01:57:17.766Z,52.80
2019-04-28T01:59:49.977Z,53.80
2019-04-28T02:05:27.153Z,54.10
2019-04-28T02:08:00.224Z,54.40
2019-04-28T02:10:30.511Z,53.90
2019-04-28T02:13:06.938Z,53.40
2019-04-28T02:15:40.054Z,53.20
2019-04-28T02:18:20.015Z,53.10
2019-04-28T02:20:51.852Z,53.30
2019-04-28T02:23:26.730Z,53.00
2019-04-28T02:25:56.530Z,53.00
2019-04-28T02:28:32.267Z,53.20
2019-04-28T02:31:11.295Z,53.00
2019-04-28T02:33:40.778Z,53.00
2019-04-28T02:36:16.674Z,53.00
2019-04-28T02:38:47.419Z,52.90
2019-04-28T02:41:30.634Z,53.00
2019-04-28T02:44:01.065Z,52.80
2019-04-28T02:46:34.216Z,52.70
2019-04-28T02:49:10.977Z,53.00
2019-04-28T02:52:00.037Z,53.40
2019-04-28T02:54:44.770Z,53.80
2019-04-28T02:57:20.818Z,52.80
2019-04-28T02:59:52.807Z,53.60
2019-04-28T03:02:28.225Z,53.40
2019-04-28T03:05:01.584Z,53.10
2019-04-28T03:07:31.589Z,53.40
2019-04-28T03:10:04.075Z,55.20
2019-04-28T03:12:37.402Z,55.30
2019-04-28T03:15:10.362Z,55.90
2019-04-28T03:17:43.901Z,56.00
2019-04-28T03:20:20.946Z,56.40
2019-04-28T03:22:55.252Z,56.90
2019-04-28T03:25:33.582Z,59.20
2019-04-28T03:28:14.077Z,59.70
2019-04-28T03:30:57.318Z,59.10
2019-04-28T03:33:34.025Z,60.10
2019-04-28T03:36:06.982Z,60.20
2019-04-28T03:38:37.479Z,59.30
2019-04-28T03:41:11.203Z,58.70
2019-04-28T03:43:46.326Z,60.50
2019-04-28T03:46:20.572Z,59.80
2019-04-28T03:48:55.738Z,58.10
2019-04-28T03:51:30.529Z,57.60
2019-04-28T03:54:06.670Z,56.90
2019-04-28T03:56:41.315Z,56.20
2019-04-28T03:59:17.152Z,55.50
2019-04-28T04:02:11.306Z,55.30
2019-04-28T04:04:41.623Z,55.30
2019-04-28T04:07:11.968Z,54.90
2019-04-28T04:09:51.422Z,55.50
2019-04-28T04:12:41.186Z,55.20
2019-04-28T04:15:21.352Z,54.30
2019-04-28T04:18:11.063Z,54.90
2019-04-28T04:20:42.358Z,54.80
2019-04-28T04:23:14.747Z,54.70
2019-04-28T04:25:46.754Z,54.70
2019-04-28T04:28:23.314Z,54.80
2019-04-28T04:31:00.513Z,55.20
2019-04-28T04:33:31.079Z,57.00
2019-04-28T04:36:02.433Z,59.40
2019-04-28T04:38:43.306Z,60.00
2019-04-28T04:41:12.808Z,60.90
2019-04-28T04:43:44.998Z,61.70
2019-04-28T04:46:21.904Z,61.40
2019-04-28T04:48:54.403Z,60.50
2019-04-28T04:51:25.865Z,60.30
2019-04-28T04:54:02.264Z,60.40
2019-04-28T04:56:36.701Z,60.70
2019-04-28T04:59:26.768Z,61.80
2019-04-28T05:02:02.662Z,63.20
2019-04-28T05:04:34.339Z,62.90
2019-04-28T05:07:07.866Z,62.50
2019-04-28T05:09:36.794Z,64.30
2019-04-28T05:12:12.127Z,63.70
2019-04-28T05:14:43.002Z,63.90
2019-04-28T05:17:13.080Z,64.30
2019-04-28T05:19:59.717Z,63.90
2019-04-28T05:22:33.261Z,65.50
2019-04-28T05:25:20.432Z,63.60
2019-04-28T05:27:54.482Z,63.00
2019-04-28T05:30:27.072Z,62.70
2019-04-28T05:33:00.347Z,63.00
2019-04-28T05:35:35.492Z,61.40
2019-04-28T05:38:04.327Z,62.80
2019-04-28T05:40:35.092Z,63.10
2019-04-28T05:43:16.226Z,63.00
2019-04-28T05:45:49.900Z,63.00
2019-04-28T05:48:24.117Z,63.40
2019-04-28T05:51:03.334Z,64.60
2019-04-28T05:53:44.249Z,64.00
2019-04-28T05:56:20.368Z,64.10
2019-04-28T05:58:56.766Z,63.60
2019-04-28T06:01:30.582Z,63.00
2019-04-28T06:04:01.031Z,63.20
2019-04-28T06:06:36.353Z,63.60
2019-04-28T06:09:10.256Z,64.70
2019-04-28T06:11:42.101Z,66.60
2019-04-28T06:14:13.611Z,63.50
2019-04-28T06:16:54.457Z,63.10
2019-04-28T06:19:26.030Z,62.30
2019-04-28T06:21:56.030Z,60.70
2019-04-28T06:24:30.117Z,60.20
2019-04-28T06:27:07.391Z,59.80
2019-04-28T06:29:39.638Z,60.00
2019-04-28T06:32:09.848Z,60.30
2019-04-28T06:34:41.377Z,60.00
2019-04-28T06:37:13.639Z,59.50
2019-04-28T06:39:49.293Z,59.70
2019-04-28T06:42:22.100Z,59.40
2019-04-28T06:44:57.321Z,57.90
2019-04-28T06:47:31.950Z,55.80
2019-04-28T06:50:05.245Z,54.80
2019-04-28T06:52:37.535Z,53.60
2019-04-28T06:55:14.599Z,51.70
2019-04-28T06:57:51.394Z,50.20
2019-04-28T07:00:22.398Z,49.60
2019-04-28T07:02:56.446Z,49.20
2019-04-28T07:05:34.653Z,49.00
2019-04-28T07:08:13.994Z,49.20
2019-04-28T07:10:51.541Z,49.50
2019-04-28T07:13:22.565Z,49.80
2019-04-28T07:15:53.098Z,49.60
2019-04-28T07:18:24.763Z,50.50
2019-04-28T07:21:01.238Z,50.00
2019-04-28T07:23:34.790Z,49.40
2019-04-28T07:26:07.024Z,51.40
2019-04-28T07:28:46.716Z,51.70
2019-04-28T07:31:15.608Z,52.40
2019-04-28T07:33:54.019Z,51.00
2019-04-28T07:36:24.582Z,50.20
2019-04-28T07:38:57.426Z,48.50
2019-04-28T07:41:31.352Z,47.60
2019-04-28T07:44:02.777Z,47.10
2019-04-28T07:46:41.021Z,48.60
2019-04-28T07:49:11.362Z,49.90
2019-04-28T07:51:52.489Z,51.80
2019-04-28T07:54:31.101Z,53.20
2019-04-28T07:57:08.369Z,53.60
2019-04-28T07:59:41.084Z,50.60
2019-04-28T08:02:20.236Z,48.70
2019-04-28T08:04:53.839Z,48.80
2019-04-28T08:07:29.699Z,47.60
2019-04-28T08:10:10.150Z,47.30
2019-04-28T08:12:36.819Z,49.80
2019-04-28T08:15:06.873Z,49.30
2019-04-28T08:17:38.213Z,48.00
2019-04-28T08:20:10.422Z,47.40
2019-04-28T08:22:40.549Z,47.00
2019-04-28T08:25:12.801Z,46.10
2019-04-28T08:27:45.306Z,45.90
2019-04-28T08:30:21.826Z,46.60
2019-04-28T08:33:06.639Z,44.50
2019-04-28T08:35:42.553Z,45.30
2019-04-28T08:38:12.273Z,47.20
2019-04-28T08:40:48.356Z,46.70
2019-04-28T08:43:19.631Z,46.40
2019-04-28T08:45:50.863Z,46.10
2019-04-28T08:48:26.764Z,45.80
2019-04-28T08:51:05.245Z,46.10
2019-04-28T08:53:34.521Z,46.60
2019-04-28T08:56:06.265Z,46.60
2019-04-28T08:58:38.244Z,47.50
2019-04-28T09:01:10.094Z,47.80
2019-04-28T09:03:43.247Z,49.70
2019-04-28T09:06:23.003Z,51.70
2019-04-28T09:08:52.947Z,53.40
2019-04-28T09:11:27.092Z,56.20
2019-04-28T09:14:01.011Z,56.00
2019-04-28T09:16:37.282Z,56.20
2019-04-28T09:19:08.636Z,55.60
2019-04-28T09:21:38.537Z,55.10
2019-04-28T09:24:14.509Z,56.30
2019-04-28T09:26:43.848Z,55.30
2019-04-28T09:29:14.248Z,56.00
2019-04-28T09:31:45.728Z,55.80
2019-04-28T09:34:27.572Z,54.60
2019-04-28T09:36:49.253Z,54.90
2019-04-28T09:39:24.550Z,55.20
2019-04-28T09:42:12.216Z,54.10
2019-04-28T09:44:46.467Z,54.00
2019-04-28T09:47:21.388Z,53.80
2019-04-28T09:49:56.086Z,53.50
2019-04-28T09:52:26.238Z,52.70
2019-04-28T09:54:56.716Z,53.10
2019-04-28T09:57:37.969Z,54.40
2019-04-28T10:00:16.321Z,54.40
2019-04-28T10:02:48.408Z,53.80
2019-04-28T10:05:26.711Z,53.70
2019-04-28T10:07:58.062Z,54.00
2019-04-28T10:10:32.617Z,54.90
2019-04-28T10:13:06.370Z,54.00
2019-04-28T10:15:39.852Z,52.40
2019-04-28T10:18:20.715Z,52.60
2019-04-28T10:20:52.261Z,52.70
2019-04-28T10:23:36.535Z,52.90
2019-04-28T10:26:14.667Z,56.30
2019-04-28T10:28:49.420Z,55.40
2019-04-28T10:31:20.320Z,56.20
2019-04-28T10:33:59.344Z,56.30
2019-04-28T10:36:32.670Z,55.90
2019-04-28T10:39:09.715Z,54.70
2019-04-28T10:41:45.845Z,55.20
2019-04-28T10:44:22.082Z,54.60
2019-04-28T10:46:57.107Z,54.20
2019-04-28T10:49:29.691Z,54.30
2019-04-28T10:52:02.258Z,53.00
2019-04-28T10:54:37.783Z,53.20
2019-04-28T10:57:20.944Z,52.70
2019-04-28T10:59:57.579Z,53.40
2019-04-28T11:02:27.983Z,52.20
2019-04-28T11:05:08.805Z,51.00
2019-04-28T11:07:42.295Z,52.20
2019-04-28T11:10:20.392Z,50.70
2019-04-28T11:12:49.757Z,51.20
2019-04-28T11:15:23.606Z,52.10
2019-04-28T11:17:53.226Z,51.60
2019-04-28T11:20:25.269Z,51.90
2019-04-28T11:22:54.157Z,50.80
2019-04-28T11:25:23.844Z,51.30
2019-04-28T11:27:56.820Z,49.60
2019-04-28T11:30:30.345Z,49.90
2019-04-28T11:33:07.519Z,49.70
2019-04-28T11:35:38.834Z,48.80
2019-04-28T11:38:07.859Z,48.40
2019-04-28T11:40:37.575Z,47.20
2019-04-28T11:43:07.603Z,47.70
2019-04-28T11:45:36.754Z,46.70
2019-04-28T11:48:11.269Z,46.80
2019-04-28T11:50:45.360Z,45.80
2019-04-28T11:53:15.090Z,45.30
2019-04-28T11:55:50.032Z,45.90
2019-04-28T11:58:25.319Z,46.00
2019-04-28T12:00:56.293Z,44.80
2019-04-28T12:03:29.082Z,46.50
2019-04-28T12:05:59.916Z,48.40
2019-04-28T12:08:31.900Z,46.70
2019-04-28T12:11:14.862Z,49.40
2019-04-28T12:14:06.069Z,49.40
2019-04-28T12:16:55.563Z,49.70
2019-04-28T12:19:34.677Z,49.00
2019-04-28T12:22:06.366Z,49.40
2019-04-28T12:24:37.490Z,50.80
2019-04-28T12:27:06.832Z,49.80
2019-04-28T12:29:37.876Z,50.60
2019-04-28T12:32:08.195Z,48.60
2019-04-28T12:34:44.006Z,47.60
2019-04-28T12:37:22.140Z,48.50
2019-04-28T12:39:51.417Z,46.70
2019-04-28T12:42:22.633Z,46.10
2019-04-28T12:44:51.576Z,46.20
2019-04-28T12:47:20.956Z,47.40
2019-04-28T12:50:14.733Z,47.80
2019-04-28T12:52:48.604Z,47.60
2019-04-28T13:02:26.136Z,44.90
2019-04-28T13:04:57.988Z,43.30
2019-04-28T13:08:02.782Z,43.40
2019-04-28T13:10:34.644Z,43.60
2019-04-28T13:13:43.153Z,46.50
2019-04-28T13:16:15.296Z,48.20
2019-04-28T13:19:35.920Z,50.20
2019-04-28T13:22:08.155Z,51.70
2019-04-28T13:25:30.892Z,53.70
2019-04-28T13:28:02.582Z,50.70
2019-04-28T13:31:23.323Z,49.40
2019-04-28T13:33:58.960Z,48.90
2019-04-28T13:37:07.122Z,50.10
2019-04-28T13:39:55.461Z,47.60
2019-04-28T13:43:15.262Z,55.70
2019-04-28T13:45:51.873Z,53.30
2019-04-28T13:49:01.045Z,58.80
2019-04-28T13:51:34.767Z,65.90
2019-04-28T13:54:09.391Z,67.20
2019-04-28T13:56:39.684Z,64.40
2019-04-28T13:59:43.384Z,63.60
2019-04-28T14:02:34.151Z,64.10
2019-04-28T14:05:48.309Z,63.70
2019-04-28T14:08:25.197Z,61.90
2019-04-28T14:11:15.276Z,61.20
2019-04-28T14:13:49.319Z,61.90
2019-04-28T14:16:57.773Z,59.90
2019-04-28T14:19:27.253Z,59.90
2019-04-28T14:22:42.031Z,60.60
2019-04-28T14:25:18.922Z,62.50
2019-04-28T14:28:33.281Z,62.60
2019-04-28T14:31:11.793Z,62.70
2019-04-28T14:33:41.466Z,80.10
2019-04-28T14:36:11.403Z,83.60
2019-04-28T14:38:43.311Z,86.50
2019-04-28T14:42:12.364Z,85.80
2019-04-28T14:44:48.436Z,86.50
2019-04-28T14:47:56.690Z,87.80
2019-04-28T14:50:29.735Z,91.10
2019-04-28T14:53:50.589Z,76.10
2019-04-28T14:56:23.290Z,76.20
2019-04-28T14:59:21.011Z,70.90
2019-04-28T15:02:12.687Z,72.60
2019-04-28T15:05:48.078Z,73.90
2019-04-28T15:08:34.387Z,68.80
2019-04-28T15:11:58.721Z,67.10
2019-04-28T15:14:33.651Z,69.00
2019-04-28T15:17:21.756Z,65.90
2019-04-28T15:20:09.188Z,65.20
2019-04-28T15:22:55.444Z,66.30
2019-04-28T15:25:29.571Z,66.10
2019-04-28T15:30:52.570Z,65.60
2019-04-28T15:33:24.233Z,67.00
2019-04-28T15:36:38.748Z,65.80
2019-04-28T15:39:08.861Z,67.90
2019-04-28T15:45:22.456Z,66.80
2019-04-28T15:48:34.121Z,66.40
2019-04-28T15:51:07.193Z,68.90
2019-04-28T15:54:16.294Z,68.70
2019-04-28T15:56:51.441Z,61.10
2019-04-28T15:59:53.733Z,64.00
2019-04-28T16:05:43.133Z,66.00
2019-04-28T16:08:38.580Z,61.30
2019-04-28T16:11:37.946Z,59.90
2019-04-28T16:14:29.992Z,60.20
2019-04-28T16:17:40.192Z,61.50
2019-04-28T16:20:12.219Z,60.80
2019-04-28T16:23:13.572Z,59.50
2019-04-28T16:29:34.071Z,62.10
2019-04-28T16:32:11.352Z,59.40
2019-04-28T16:35:29.973Z,59.70
2019-04-28T16:38:03.567Z,59.60
2019-04-28T16:41:16.734Z,59.00
2019-04-28T16:43:59.275Z,60.40
2019-04-28T16:46:59.970Z,59.20
2019-04-28T16:49:38.123Z,57.80
2019-04-28T16:52:50.522Z,57.20
2019-04-28T16:55:26.653Z,56.40
2019-04-28T16:58:59.692Z,55.50
2019-04-28T17:01:56.409Z,55.10
2019-04-28T17:04:47.192Z,54.50
2019-04-28T17:07:24.488Z,53.30
2019-04-28T17:10:52.573Z,53.00
2019-04-28T17:13:38.161Z,52.90
2019-04-28T17:19:55.878Z,54.70
2019-04-28T17:23:12.427Z,55.70
2019-04-28T17:25:46.352Z,56.30
2019-04-28T17:28:58.248Z,56.30
2019-04-28T17:31:29.234Z,56.50
2019-04-28T17:34:16.360Z,56.50
2019-04-28T17:36:56.018Z,56.80
2019-04-28T17:40:07.104Z,56.80
2019-04-28T17:42:40.318Z,57.50
2019-04-28T17:48:45.467Z,57.00
2019-04-28T17:51:59.614Z,57.90
2019-04-28T17:54:39.478Z,58.10
2019-04-28T17:58:02.284Z,57.90
2019-04-28T18:00:46.417Z,58.40
2019-04-28T18:04:18.765Z,58.40
2019-04-28T18:07:04.138Z,58.50
2019-04-28T18:16:53.586Z,59.00
2019-04-28T18:19:37.713Z,59.20
2019-04-28T18:22:34.554Z,61.70
2019-04-28T18:25:11.312Z,59.60
2019-04-28T18:28:22.952Z,60.10
2019-04-28T18:31:16.856Z,60.80
2019-04-28T18:37:57.736Z,63.60
2019-04-28T18:40:28.727Z,59.20
2019-04-28T18:43:18.196Z,61.70
2019-04-28T18:45:56.636Z,62.70
2019-04-28T18:48:30.089Z,60.80
2019-04-28T18:51:46.801Z,60.90
2019-04-28T18:54:18.956Z,60.80
2019-04-28T18:57:36.223Z,61.60
2019-04-28T19:00:16.556Z,61.10
2019-04-28T19:03:36.320Z,61.30
2019-04-28T19:06:14.564Z,61.30
2019-04-28T19:16:34.711Z,62.10
2019-04-28T19:22:04.622Z,63.90
2019-04-28T19:28:17.372Z,65.20
2019-04-28T19:31:01.474Z,66.30
2019-04-28T19:34:10.647Z,65.50
2019-04-28T19:36:46.373Z,64.40
2019-04-28T19:39:18.319Z,63.90
2019-04-28T19:45:32.455Z,64.90
2019-04-28T19:48:52.114Z,65.90
2019-04-28T19:51:40.192Z,65.10
2019-04-28T19:55:01.643Z,64.20
2019-04-28T19:57:41.570Z,63.50
2019-04-28T20:00:54.563Z,62.80
2019-04-28T20:03:30.734Z,63.50
2019-04-28T20:06:44.824Z,63.50
2019-04-28T20:09:05.678Z,63.50
2019-04-28T20:12:12.296Z,62.80
2019-04-28T20:14:51.519Z,61.80
2019-04-28T20:17:56.525Z,62.00
2019-04-28T20:20:31.825Z,62.00
2019-04-28T20:23:35.693Z,61.70
2019-04-28T20:26:07.980Z,62.50
2019-04-28T20:29:07.584Z,62.30
2019-04-28T20:31:44.088Z,62.40
2019-04-28T20:34:32.478Z,61.90
2019-04-28T20:37:21.483Z,61.90
2019-04-28T20:40:08.220Z,61.60
2019-04-28T20:43:02.019Z,61.30
2019-04-28T20:45:32.118Z,61.70
2019-04-28T20:48:08.163Z,61.40
2019-04-28T20:50:52.428Z,60.60
2019-04-28T20:53:26.440Z,62.10
2019-04-28T20:56:38.452Z,61.50
2019-04-28T20:59:13.306Z,61.70
2019-04-28T21:02:37.179Z,61.40
2019-04-28T21:05:16.241Z,61.30
2019-04-28T21:08:02.044Z,60.60
2019-04-28T21:10:39.341Z,60.80
2019-04-28T21:13:11.473Z,60.10
2019-04-28T21:15:48.388Z,60.30
2019-04-28T21:18:27.427Z,59.90
2019-04-28T21:21:15.264Z,60.00
2019-04-28T21:23:49.373Z,60.90
2019-04-28T21:33:03.671Z,60.10
2019-04-28T21:35:42.179Z,60.40
2019-04-28T21:39:06.098Z,60.40
2019-04-28T21:41:39.478Z,60.10
2019-04-28T21:45:02.638Z,60.10
2019-04-28T21:47:41.368Z,60.10
2019-04-28T21:50:36.728Z,60.60
2019-04-28T21:53:17.188Z,60.30
2019-04-28T21:59:45.365Z,60.20
2019-04-28T22:02:18.831Z,60.10
2019-04-28T22:08:25.339Z,59.80
2019-04-28T22:11:00.356Z,59.60
2019-04-28T22:16:26.333Z,59.60
2019-04-28T22:19:00.203Z,59.10
2019-04-28T22:21:44.432Z,59.20
2019-04-28T22:24:15.705Z,59.50
2019-04-28T22:27:30.979Z,59.30
2019-04-28T22:30:03.063Z,58.30
2019-04-28T22:35:09.014Z,61.70
2019-04-28T22:37:41.492Z,59.00
2019-04-28T22:40:11.211Z,58.80
2019-04-28T22:42:59.431Z,59.00
2019-04-28T22:45:33.672Z,58.90
2019-04-28T22:48:34.811Z,58.80
2019-04-28T22:51:07.400Z,58.60
2019-04-28T22:53:39.886Z,59.70
2019-04-28T22:56:47.408Z,60.10
2019-04-28T22:59:24.887Z,61.60
2019-04-28T23:04:53.968Z,60.00
2019-04-28T23:07:24.856Z,58.70
2019-04-28T23:16:59.641Z,58.90
2019-04-28T23:19:32.002Z,58.90
2019-04-28T23:24:53.335Z,58.70
2019-04-28T23:30:39.139Z,58.60
2019-04-28T23:35:49.639Z,58.80
2019-04-28T23:45:26.321Z,58.50
2019-04-28T23:47:57.352Z,58.70
2019-04-28T23:50:34.933Z,59.00
2019-04-28T23:53:09.418Z,59.50
2019-04-28T23:55:41.820Z,59.50
2019-04-28T23:58:22.913Z,59.50
